Rocky Mountain Metropolitan Airport
KBJC : now visible

Airfield :











YOU CAN JOIN US ON...

 
LOGIN :

Register | Disclaimer

   EN    FR    IT 

 









Legend :    VFR   Marginal VFR   IFR   Intensive IFR   Very Intensive IFR
Visi :
Ceiling :
>= 8 km
>= 3000ft
5 to 8 km
1000 to 3000 ft
1500m to 5 km
500 to 1000 ft
800 to 1500m
200 to 500 ft
< 800m
< 200 ft
Symbols :   Thunderstorms  Fog  Heavy snow  Heavy precipitations  Wind > 20 kt






- Airport Elevation : 5673 ft


KBJC - Rocky Mountain Metropolitan

CURRENT METAR :
  • 291145Z 26006KT 10SM SCT220 19/02 A3021

EXPIRED METARs :
  • 291135Z AUTO 24005KT 10SM CLR 19/01 A3021 RMK AO2
  • 291115Z AUTO 24008KT 10SM CLR 21/01 A3021 RMK AO2
  • 291055Z AUTO 23006KT 10SM CLR 20/02 A3021 RMK AO2
  • 291035Z AUTO 26003KT 10SM CLR 20/02 A3021 RMK AO2
  • 291015Z AUTO 24004KT 10SM CLR 19/02 A3020 RMK AO2
  • 290955Z AUTO 21005KT 10SM CLR 20/03 A3020 RMK AO2
  • 290935Z AUTO 27003KT 10SM CLR 20/02 A3020 RMK AO2
  • 290915Z AUTO 00000KT 10SM CLR 20/02 A3020 RMK AO2

TAF KBJC
Valid from the 29 at 12:00 until the 30 at 12:00 UTC


291124Z 2912/3012 23007KT P6SM FEW200
FM291500 26010KT P6SM FEW140 SCT200
FM291900 29012KT P6SM VCTS SCT090CB BKN150
TEMPO 2919/2923 VRB20G30KT
FM300300 02012G20KT P6SM FEW090 SCT140 BKN200
FM300800 24010KT P6SM SCT110 BKN200
KZDV FIR / North America



MET'MAP, your aeronautical weather chart ! - Copyright ORBIFLY December 2007 - Disclaimer

ORBIFLY MET'MAP TEAM :

Programming & Development : Alexandra Zaïnal
Original concept : Baudouin d'Aumeries
Technical & hardware support : Manuel Goepfert
Assistance : Marc-Olivier Méhu




SOURCES & CREDITS :

   NOAA       Earth
Advisory